Decoded Metar for KLDJ ( in _UNIDENTIFIED) (IATA:N/A) | Meteo·Mobile Aviation Weather
aviador You're here:

KLDJ Decoded Metar

in _UNIDENTIFIED
Report Time2019-02-23 08:15:00
UTC Time2019-02-23 08:28:11
Flight Rules vfr VFR
WindCalm
Visibility9999 m
Phenomena:N/A
Clouds:N/A
Expected CloudBase > 2,400 ft AGL from Temp-Dew spread
CeilingNone
Temp01°C (ISA -14)
Dew Point-5°C (65% RH)
AAT-1.6°C
QNH1033 hPa
Density Alt-2,300 ft
Elevation23 ft
Report Wrong Elevation
Raw Report
KLDJ 230815Z AUTO 00000KT 10SM CLR 01/M05 A3049 RMK AO2
T00131055=

Extra information for KLDJ:More info

Metar Taf Metar & Taf Last 4 Metars F.Rules Stats Wind Profile Meteogram Temp Stats Metar ALERT Operation Metar Decoded Social comments